Time;durP1;ratioP1;P1;durP2;ratioP2;P2;SDS_P1;SDS_P2;PMS_P1;PMS_P2;Temp;Humidity;BMP_temperature;BMP_pressure;BME280_temperature;BME280_humidity;BME280_pressure;Samples;Min_cycle;Max_cycle;Signal;HPM_P1;HPM_P2
2023/05/12 00:03:03;;;;;;;7.35;3.40;;;;;;;20.23;44.92;101511.94;16118201;19;131301;-43
2023/05/12 00:08:25;;;;;;;3.80;3.30;;;;;;;20.20;45.24;101516.03;16118567;19;129602;-47
2023/05/12 00:13:47;;;;;;;5.05;3.30;;;;;;;20.21;45.10;101517.72;16121434;19;132065;-45
2023/05/12 00:19:09;;;;;;;4.93;3.28;;;;;;;20.18;45.19;101518.22;16117534;19;130640;-44
2023/05/12 00:24:31;;;;;;;4.85;3.25;;;;;;;20.18;45.18;101518.22;16117964;19;130988;-43
2023/05/12 00:29:53;;;;;;;6.22;2.78;;;;;;;20.16;44.81;101512.06;16118758;19;129592;-44
2023/05/12 00:35:15;;;;;;;4.65;2.78;;;;;;;20.16;45.21;101511.19;16116503;19;129641;-44
2023/05/12 00:40:40;;;;;;;5.68;3.22;;;;;;;20.14;45.18;101508.69;16116344;19;129631;-42
2023/05/12 00:46:04;;;;;;;3.20;2.83;;;;;;;20.13;45.15;101509.75;16116390;19;132731;-46
2023/05/12 00:51:26;;;;;;;3.97;2.97;;;;;;;20.13;44.97;101506.97;16116917;19;129919;-46
2023/05/12 00:56:48;;;;;;;3.83;3.10;;;;;;;20.11;44.92;101498.03;16115404;19;129523;-46
2023/05/12 01:02:10;;;;;;;2.90;2.65;;;;;;;20.11;45.25;101501.69;16114397;19;129717;-45
2023/05/12 01:07:32;;;;;;;3.40;2.72;;;;;;;20.09;45.04;101491.88;16119006;19;129325;-44
2023/05/12 01:12:54;;;;;;;3.20;2.83;;;;;;;20.07;44.82;101489.34;16112787;19;131063;-45
2023/05/12 01:18:19;;;;;;;5.50;2.80;;;;;;;20.07;44.84;101494.91;16113131;19;129485;-42
2023/05/12 01:23:45;;;;;;;5.05;2.97;;;;;;;20.05;45.13;101487.91;16115095;19;131850;-45
2023/05/12 01:29:07;;;;;;;3.30;3.00;;;;;;;20.04;44.89;101489.00;16110530;19;130474;-42
2023/05/12 01:34:29;;;;;;;3.80;3.25;;;;;;;20.03;45.06;101485.38;16104175;19;131027;-46
2023/05/12 01:39:54;;;;;;;4.05;3.20;;;;;;;20.03;44.93;101481.75;16117213;19;129737;-45
2023/05/12 01:45:16;;;;;;;4.65;3.10;;;;;;;20.01;44.83;101483.94;16112217;19;130384;-44
2023/05/12 01:50:38;;;;;;;4.03;3.08;;;;;;;19.99;44.87;101485.00;16113009;19;130380;-46
2023/05/12 01:56:00;;;;;;;4.15;3.25;;;;;;;19.98;45.13;101486.06;16108199;19;132795;-44
2023/05/12 02:01:24;;;;;;;4.13;3.03;;;;;;;19.97;44.77;101489.91;16117002;19;131578;-42
2023/05/12 02:06:49;;;;;;;3.25;2.95;;;;;;;19.96;45.10;101487.41;16113006;19;130390;-49
2023/05/12 02:12:11;;;;;;;4.47;3.17;;;;;;;19.92;44.90;101492.59;16114935;19;130731;-43
2023/05/12 02:17:33;;;;;;;4.07;3.00;;;;;;;19.92;45.07;101481.50;16111172;19;130730;-43
2023/05/12 02:22:55;;;;;;;4.22;2.75;;;;;;;19.89;44.61;101476.41;16111071;19;130863;-46
2023/05/12 02:28:16;;;;;;;2.75;2.25;;;;;;;19.88;44.74;101479.44;16114613;19;131635;-42
2023/05/12 02:33:38;;;;;;;3.53;2.53;;;;;;;19.86;44.59;101471.34;16111281;19;129787;-42
2023/05/12 02:39:00;;;;;;;3.72;2.65;;;;;;;19.86;44.71;101467.72;16113640;19;130803;-45
2023/05/12 02:44:22;;;;;;;3.15;2.28;;;;;;;19.84;44.66;101465.16;16111235;19;130538;-43
2023/05/12 02:49:44;;;;;;;4.20;2.30;;;;;;;19.84;44.39;101462.41;16110588;19;131088;-44
2023/05/12 02:55:06;;;;;;;4.18;2.53;;;;;;;19.84;44.65;101462.41;16108064;19;131109;-41
2023/05/12 03:00:28;;;;;;;4.03;2.20;;;;;;;19.82;44.60;101454.31;16107133;19;130594;-41
2023/05/12 03:05:51;;;;;;;3.83;2.20;;;;;;;19.81;44.74;101449.84;16112782;19;129929;-41
2023/05/12 03:11:13;;;;;;;5.07;1.92;;;;;;;19.81;44.49;101449.03;16108111;19;129636;-42
2023/05/12 03:16:35;;;;;;;3.47;2.13;;;;;;;19.79;44.63;101440.91;16118247;19;131302;-43
2023/05/12 03:21:57;;;;;;;7.68;1.95;;;;;;;19.78;44.43;101435.63;16125843;19;129968;-42
2023/05/12 03:27:20;;;;;;;3.80;2.40;;;;;;;19.78;44.70;101432.84;16125424;19;130301;-43
2023/05/12 03:32:44;;;;;;;2.83;1.98;;;;;;;19.77;44.38;101428.38;16122782;19;129847;-43
2023/05/12 03:38:05;;;;;;;3.05;1.95;;;;;;;19.75;44.48;101424.97;16121264;19;132124;-42
2023/05/12 03:43:27;;;;;;;2.17;1.58;;;;;;;19.75;44.53;101419.44;16119193;19;130408;-45
2023/05/12 03:48:49;;;;;;;2.30;1.52;;;;;;;19.73;44.66;101416.91;16119245;19;129557;-42
2023/05/12 03:54:11;;;;;;;2.60;1.90;;;;;;;19.73;44.50;101410.50;16117180;19;131381;-44
2023/05/12 03:59:33;;;;;;;2.20;1.80;;;;;;;19.71;44.62;101409.88;16118809;19;129447;-45
2023/05/12 04:04:56;;;;;;;2.22;1.88;;;;;;;19.69;44.55;101394.31;16118702;19;130633;-45
2023/05/12 04:10:17;;;;;;;3.85;1.85;;;;;;;19.69;44.30;101402.66;16116806;19;132180;-43
2023/05/12 04:15:40;;;;;;;3.10;1.70;;;;;;;19.68;44.48;101391.78;16114480;19;132354;-41
2023/05/12 04:21:01;;;;;;;1.83;1.65;;;;;;;19.67;44.34;101395.66;16116919;19;131129;-45
2023/05/12 04:26:23;;;;;;;2.65;1.40;;;;;;;19.66;44.25;101378.16;16114073;19;131340;-43
2023/05/12 04:31:45;;;;;;;3.60;1.50;;;;;;;19.65;44.38;101381.16;16118011;19;131041;-42
2023/05/12 04:37:07;;;;;;;1.95;1.58;;;;;;;19.64;44.58;101385.88;16115431;19;132218;-44
2023/05/12 04:42:29;;;;;;;3.28;1.60;;;;;;;19.63;44.34;101383.38;16116877;19;130114;-42
2023/05/12 04:47:51;;;;;;;2.03;1.55;;;;;;;19.63;44.53;101386.16;16117134;19;129303;-42
2023/05/12 04:53:17;;;;;;;3.22;1.55;;;;;;;19.61;44.10;101385.53;16114748;19;130339;-41
2023/05/12 04:58:39;;;;;;;2.38;1.23;;;;;;;19.59;44.52;101385.75;16113604;19;130260;-45
2023/05/12 05:04:01;;;;;;;1.33;1.08;;;;;;;19.57;44.34;101384.31;16114284;19;130311;-46
2023/05/12 05:09:23;;;;;;;1.95;1.20;;;;;;;19.55;44.11;101390.13;16118303;19;129418;-42
2023/05/12 05:14:45;;;;;;;1.40;1.10;;;;;;;19.56;44.29;101391.81;16110819;19;129868;-42
2023/05/12 05:20:07;;;;;;;1.42;1.13;;;;;;;19.55;44.25;101387.34;16108643;19;135652;-47
2023/05/12 05:25:33;;;;;;;1.10;1.00;;;;;;;19.55;43.96;101381.78;16115039;19;130679;-47
2023/05/12 05:30:55;;;;;;;2.17;1.00;;;;;;;19.62;44.04;101392.78;16103228;19;129526;-42
2023/05/12 05:36:17;;;;;;;1.85;1.10;;;;;;;19.68;44.45;101400.97;16110900;19;130862;-42
2023/05/12 05:41:39;;;;;;;5.53;0.98;;;;;;;19.72;44.23;101395.78;16112888;19;129767;-41
2023/05/12 05:47:01;;;;;;;2.72;1.25;;;;;;;19.75;43.98;101388.91;16107591;19;130453;-45
2023/05/12 05:52:23;;;;;;;2.35;0.93;;;;;;;19.74;44.40;101384.44;16113252;19;130928;-45
2023/05/12 05:57:45;;;;;;;3.03;1.08;;;;;;;19.73;44.41;101393.84;16114766;19;131168;-43
2023/05/12 06:03:07;;;;;;;2.25;1.02;;;;;;;19.70;44.31;101389.63;16114822;19;134798;-41
2023/05/12 06:08:29;;;;;;;5.25;1.50;;;;;;;19.67;43.95;101393.75;16109167;19;130730;-45
2023/05/12 06:13:51;;;;;;;4.30;1.15;;;;;;;19.66;44.34;101385.63;16108322;19;130363;-41
2023/05/12 06:19:14;;;;;;;3.70;1.40;;;;;;;19.63;44.43;101389.75;16115098;19;131800;-41
2023/05/12 06:24:36;;;;;;;2.17;1.55;;;;;;;19.61;44.26;101391.91;16112029;19;129659;-44
2023/05/12 06:29:58;;;;;;;8.50;1.52;;;;;;;19.61;44.11;101394.69;16115083;19;129426;-46
2023/05/12 06:35:20;;;;;;;8.93;1.98;;;;;;;19.56;44.26;101389.03;16109972;19;130173;-42
2023/05/12 06:40:42;;;;;;;3.58;1.35;;;;;;;19.55;44.13;101397.59;16111160;19;132530;-43
2023/05/12 06:46:04;;;;;;;3.30;1.70;;;;;;;19.52;44.38;101385.88;16110100;19;130996;-44
2023/05/12 06:51:26;;;;;;;7.78;1.55;;;;;;;19.51;44.54;101397.22;16138604;19;130413;-41
2023/05/12 06:56:48;;;;;;;2.60;1.73;;;;;;;19.51;44.27;101394.47;16141958;19;130527;-44
2023/05/12 07:02:09;;;;;;;8.07;2.20;;;;;;;19.50;44.25;101398.31;16144296;19;130340;-42
2023/05/12 07:07:31;;;;;;;4.95;1.73;;;;;;;19.52;44.34;101387.81;16143804;19;130794;-42
2023/05/12 07:12:53;;;;;;;4.60;2.30;;;;;;;19.52;44.73;101401.69;16144026;19;129429;-42
2023/05/12 07:18:15;;;;;;;2.72;1.98;;;;;;;19.51;44.71;101392.50;16140255;19;130665;-41
2023/05/12 07:23:40;;;;;;;6.50;2.55;;;;;;;19.57;44.72;101396.25;16140061;19;131162;-42
2023/05/12 07:29:03;;;;;;;3.70;3.07;;;;;;;19.64;44.64;101404.47;16143254;19;133206;-43
2023/05/12 07:34:24;;;;;;;17.08;3.63;;;;;;;19.75;44.51;101408.31;16141681;19;129030;-45
2023/05/12 07:39:46;;;;;;;6.00;3.15;;;;;;;19.80;44.29;101422.34;16138744;19;129644;-44
2023/05/12 07:45:08;;;;;;;5.47;3.17;;;;;;;19.88;44.30;101418.34;16138901;19;129298;-44
2023/05/12 07:50:30;;;;;;;3.65;3.03;;;;;;;19.95;44.64;101419.88;16136936;19;129706;-41
2023/05/12 07:55:52;;;;;;;6.47;3.15;;;;;;;20.03;44.51;101426.22;16139954;19;130100;-43
2023/05/12 08:01:14;;;;;;;8.35;2.78;;;;;;;20.09;44.30;101430.78;16127041;19;131437;-44
2023/05/12 08:06:36;;;;;;;4.88;2.78;;;;;;;20.11;44.38;101445.25;16119980;19;130543;-44
2023/05/12 08:11:58;;;;;;;5.00;2.70;;;;;;;20.15;44.32;101446.47;16122598;19;129490;-43
2023/05/12 08:17:21;;;;;;;3.88;2.53;;;;;;;20.18;44.38;101445.13;16122144;19;130281;-41
2023/05/12 08:22:43;;;;;;;9.32;3.25;;;;;;;20.19;44.22;101453.22;16123571;19;130152;-41
2023/05/12 08:28:05;;;;;;;6.45;3.03;;;;;;;20.20;44.31;101463.25;16121045;19;130541;-41
2023/05/12 08:33:27;;;;;;;9.40;3.30;;;;;;;20.23;44.90;101465.53;16127492;19;129404;-40
2023/05/12 08:38:49;;;;;;;8.60;3.08;;;;;;;20.25;45.51;101468.91;16121486;19;129698;-39
2023/05/12 08:44:11;;;;;;;6.57;3.65;;;;;;;20.32;45.65;101479.03;16116895;19;130911;-39
2023/05/12 08:49:35;;;;;;;22.92;4.43;;;;;;;20.36;46.08;101483.03;16114979;19;130153;-39
2023/05/12 08:54:58;;;;;;;17.27;4.40;;;;;;;20.38;45.81;101491.97;16118641;19;130430;-39
2023/05/12 09:00:24;;;;;;;17.58;5.32;;;;;;;20.41;46.43;101497.88;16120651;19;130254;-39
2023/05/12 09:05:46;;;;;;;17.67;5.97;;;;;;;20.47;47.32;101501.63;16122100;19;129847;-39
2023/05/12 09:11:11;;;;;;;32.10;7.47;;;;;;;20.51;47.80;101497.25;16117052;19;129545;-39
2023/05/12 09:16:40;;;;;;;31.33;8.70;;;;;;;20.55;48.17;101498.47;16114969;19;131993;-38
2023/05/12 09:22:02;;;;;;;25.80;6.78;;;;;;;20.60;48.03;101506.91;16117212;19;130255;-39
2023/05/12 09:27:28;;;;;;;20.27;5.15;;;;;;;20.68;48.21;101504.81;16117392;19;129612;-39
2023/05/12 09:32:50;;;;;;;27.88;8.18;;;;;;;20.78;47.85;101510.66;16116488;19;130633;-40
2023/05/12 09:38:13;;;;;;;22.67;8.80;;;;;;;20.80;48.06;101508.44;16117948;19;129737;-38
2023/05/12 09:43:36;;;;;;;31.60;9.43;;;;;;;20.79;48.11;101512.34;16117219;19;130201;-40
2023/05/12 09:48:58;;;;;;;23.42;8.13;;;;;;;20.80;48.19;101516.78;16119230;19;129119;-40
2023/05/12 09:54:30;;;;;;;21.30;7.80;;;;;;;20.85;48.10;101521.63;16116776;19;129242;-41
2023/05/12 09:59:53;;;;;;;22.60;7.35;;;;;;;20.81;48.21;101520.41;16115603;19;129729;-39
2023/05/12 10:05:19;;;;;;;18.30;7.20;;;;;;;20.87;47.96;101519.41;16114737;19;129457;-43
2023/05/12 10:10:47;;;;;;;20.77;8.75;;;;;;;20.94;48.19;101513.72;16115778;19;129357;-39
2023/05/12 10:16:09;;;;;;;19.65;7.55;;;;;;;20.95;48.26;101516.25;16113227;19;130387;-40
2023/05/12 10:21:32;;;;;;;18.02;7.18;;;;;;;20.95;48.01;101524.59;16115028;19;130395;-41
2023/05/12 10:26:55;;;;;;;19.00;6.30;;;;;;;20.90;47.88;101530.91;16112682;19;129365;-40
2023/05/12 10:32:17;;;;;;;16.05;6.05;;;;;;;20.89;48.25;101534.78;16111350;19;132945;-41
2023/05/12 10:37:41;;;;;;;19.17;6.63;;;;;;;20.88;48.16;101535.00;16090140;19;130948;-42
2023/05/12 10:43:03;;;;;;;26.65;6.65;;;;;;;20.84;48.45;101531.88;16108690;19;129747;-44
2023/05/12 10:48:25;;;;;;;17.88;5.50;;;;;;;20.84;48.08;101537.44;16112153;19;132330;-42
2023/05/12 10:53:52;;;;;;;15.07;4.57;;;;;;;20.86;47.77;101551.97;16114412;19;130470;-40
2023/05/12 10:59:23;;;;;;;21.20;4.80;;;;;;;20.87;47.77;101553.66;16109373;19;131747;-40
2023/05/12 11:04:50;;;;;;;22.23;5.20;;;;;;;20.86;47.48;101549.19;16110353;19;131393;-40
2023/05/12 11:10:13;;;;;;;25.42;4.82;;;;;;;20.88;47.20;101543.34;16104366;19;131273;-40
2023/05/12 11:15:36;;;;;;;14.07;3.80;;;;;;;20.90;46.97;101546.75;16108051;19;129209;-41
2023/05/12 11:21:08;;;;;;;9.15;3.72;;;;;;;20.90;47.02;101553.16;16106887;19;130506;-41
2023/05/12 11:26:30;;;;;;;19.17;3.40;;;;;;;20.87;47.09;101566.69;16106289;19;129757;-41
2023/05/12 11:31:52;;;;;;;9.88;3.53;;;;;;;20.86;47.20;101557.53;16105684;19;129316;-39
2023/05/12 11:37:14;;;;;;;9.43;3.28;;;;;;;20.88;47.21;101557.25;16114772;19;130930;-39
2023/05/12 11:42:38;;;;;;;8.35;3.20;;;;;;;20.86;47.24;101573.38;16119533;19;130516;-40
2023/05/12 11:48:12;;;;;;;8.90;2.70;;;;;;;20.83;46.49;101577.47;16120165;19;130074;-40
2023/05/12 11:53:39;;;;;;;5.38;2.50;;;;;;;20.83;46.43;101568.31;16119380;19;130496;-40
2023/05/12 11:59:01;;;;;;;9.32;2.65;;;;;;;20.83;45.91;101573.84;16126858;19;130204;-39
2023/05/12 12:04:49;;;;;;;5.70;2.63;;;;;;;20.89;46.41;101573.72;16124998;19;129949;-39
2023/05/12 12:10:16;;;;;;;9.38;2.47;;;;;;;20.92;46.49;101572.38;16118316;19;129574;-42
2023/05/12 12:15:38;;;;;;;5.65;2.00;;;;;;;20.99;46.57;101578.63;16124865;19;131625;-40
2023/05/12 12:21:00;;;;;;;10.95;2.30;;;;;;;21.08;46.52;101581.88;16122336;19;130421;-49
2023/05/12 12:26:22;;;;;;;5.10;1.90;;;;;;;21.11;46.62;101581.38;16123013;19;130993;-42
2023/05/12 12:31:44;;;;;;;4.88;2.03;;;;;;;21.13;46.51;101584.78;16123138;19;129365;-40
2023/05/12 12:37:06;;;;;;;3.72;1.92;;;;;;;21.17;46.49;101585.94;16124722;19;129558;-39
2023/05/12 12:42:28;;;;;;;3.50;1.95;;;;;;;21.18;46.34;101576.50;16124521;19;129159;-40
2023/05/12 12:47:51;;;;;;;2.97;1.70;;;;;;;21.16;46.43;101587.06;16120139;19;130210;-39
2023/05/12 12:53:13;;;;;;;5.63;1.92;;;;;;;21.12;46.97;101599.78;16118020;19;131251;-39
2023/05/12 12:58:35;;;;;;;2.67;1.48;;;;;;;21.13;46.44;101601.47;16119727;19;129412;-40
2023/05/12 13:03:59;;;;;;;3.30;1.60;;;;;;;21.11;46.34;101586.94;16119152;19;130910;-40
2023/05/12 13:09:20;;;;;;;3.25;1.60;;;;;;;21.12;46.29;101588.66;16120657;19;129469;-38
2023/05/12 13:14:42;;;;;;;2.30;1.30;;;;;;;21.04;46.40;101584.31;16119112;19;130010;-39
2023/05/12 13:20:05;;;;;;;2.67;1.67;;;;;;;20.99;46.94;101600.06;16116738;19;130784;-40
2023/05/12 13:25:27;;;;;;;3.47;1.52;;;;;;;20.92;46.74;101597.41;16117352;19;131331;-39
2023/05/12 13:30:51;;;;;;;2.78;1.38;;;;;;;20.88;46.83;101597.06;16115651;19;131296;-43
2023/05/12 13:36:13;;;;;;;2.17;1.25;;;;;;;20.84;46.79;101603.38;16118400;19;131112;-40
2023/05/12 13:41:36;;;;;;;3.30;1.48;;;;;;;20.82;47.07;101605.53;16113542;19;131388;-40
2023/05/12 13:46:58;;;;;;;2.88;1.40;;;;;;;20.80;47.12;101605.75;16112498;19;132003;-42
2023/05/12 13:52:19;;;;;;;2.15;1.40;;;;;;;20.80;46.74;101602.97;16116633;19;129373;-41
2023/05/12 13:57:41;;;;;;;1.35;1.20;;;;;;;20.77;47.26;101600.72;16112886;19;129193;-40
2023/05/12 14:03:03;;;;;;;1.90;1.10;;;;;;;20.77;47.27;101603.50;16115526;19;129781;-39
2023/05/12 14:08:25;;;;;;;2.08;1.25;;;;;;;20.80;47.11;101613.28;16112008;19;130640;-42
2023/05/12 14:13:47;;;;;;;2.20;1.40;;;;;;;20.80;47.17;101602.97;16117731;19;132971;-40
2023/05/12 14:19:08;;;;;;;1.83;1.20;;;;;;;20.84;46.88;101601.41;16113117;19;129428;-40
2023/05/12 14:24:30;;;;;;;1.25;1.00;;;;;;;20.86;47.11;101604.81;16112066;19;131164;-39
2023/05/12 14:29:52;;;;;;;2.47;1.13;;;;;;;20.84;46.94;101612.53;16112326;19;129237;-41
2023/05/12 14:35:14;;;;;;;1.52;1.00;;;;;;;20.84;46.94;101612.53;16111860;19;129479;-40
2023/05/12 14:40:36;;;;;;;3.70;1.13;;;;;;;20.80;46.96;101618.84;16112163;19;130375;-40
2023/05/12 14:46:00;;;;;;;2.33;1.08;;;;;;;20.77;46.56;101628.53;16109972;19;131424;-44
2023/05/12 14:51:22;;;;;;;2.55;1.20;;;;;;;20.75;46.52;101639.00;16113015;19;129555;-40
2023/05/12 14:56:44;;;;;;;2.03;1.20;;;;;;;20.77;46.80;101648.00;16110494;19;132030;-40
2023/05/12 15:02:06;;;;;;;2.30;1.30;;;;;;;20.77;46.81;101648.00;16111545;19;129755;-40
2023/05/12 15:07:28;;;;;;;2.40;1.30;;;;;;;20.75;46.82;101652.91;16111357;19;130476;-42
2023/05/12 15:12:50;;;;;;;1.23;1.10;;;;;;;20.74;46.31;101671.50;16125789;19;129648;-39
2023/05/12 15:18:12;;;;;;;1.50;1.20;;;;;;;20.69;46.57;101681.66;16125397;19;129608;-40
2023/05/12 15:23:34;;;;;;;1.95;1.38;;;;;;;20.62;46.90;101667.88;16125299;19;129275;-40
2023/05/12 15:28:55;;;;;;;1.63;1.50;;;;;;;20.56;46.65;101675.25;16121465;19;131303;-40
2023/05/12 15:34:17;;;;;;;1.75;1.50;;;;;;;20.57;47.07;101690.03;16126460;19;131234;-42
2023/05/12 15:39:39;;;;;;;3.20;1.30;;;;;;;20.61;47.25;101677.34;16122478;19;132244;-40
2023/05/12 15:45:01;;;;;;;3.55;1.40;;;;;;;20.65;47.85;101683.25;16126927;19;131149;-39
2023/05/12 15:50:23;;;;;;;1.63;1.52;;;;;;;20.70;47.77;101684.22;16117716;19;129504;-40
2023/05/12 15:55:45;;;;;;;3.47;1.92;;;;;;;20.75;47.94;101684.34;16123979;19;131491;-41
2023/05/12 16:01:07;;;;;;;4.80;1.80;;;;;;;20.80;47.69;101683.63;16123834;19;130619;-40
2023/05/12 16:06:29;;;;;;;3.28;1.50;;;;;;;20.85;48.10;101675.41;16123391;19;129956;-41
2023/05/12 16:11:52;;;;;;;5.30;2.20;;;;;;;20.87;48.27;101669.59;16122410;19;130553;-41
2023/05/12 16:17:13;;;;;;;4.97;1.98;;;;;;;20.88;48.12;101672.16;16120824;19;130756;-41
2023/05/12 16:22:35;;;;;;;2.67;1.55;;;;;;;20.88;48.12;101672.16;16118605;19;129100;-42
2023/05/12 16:27:57;;;;;;;3.38;1.60;;;;;;;20.92;48.03;101677.25;16121918;19;131232;-42
2023/05/12 16:33:19;;;;;;;3.25;1.77;;;;;;;20.92;48.26;101674.47;16120407;19;131551;-42
2023/05/12 16:38:41;;;;;;;4.95;2.00;;;;;;;20.95;48.24;101683.16;16123760;19;129685;-40
2023/05/12 16:44:03;;;;;;;5.47;1.88;;;;;;;20.96;48.16;101672.84;16117959;19;131045;-40
2023/05/12 16:49:25;;;;;;;4.72;1.95;;;;;;;20.90;48.11;101675.53;16120653;19;130324;-41
2023/05/12 16:54:47;;;;;;;6.05;2.28;;;;;;;20.87;48.17;101681.59;16122768;19;131802;-42
2023/05/12 17:00:09;;;;;;;18.92;6.28;;;;;;;20.85;48.01;101682.94;16113707;19;131954;-40
2023/05/12 17:05:32;;;;;;;24.35;6.97;;;;;;;20.80;47.66;101689.19;16115560;19;129760;-40
2023/05/12 17:10:53;;;;;;;21.05;7.53;;;;;;;20.74;47.58;101682.63;16116262;19;130346;-40
2023/05/12 17:16:15;;;;;;;20.13;6.82;;;;;;;20.70;47.85;101698.13;16119680;19;129431;-40
2023/05/12 17:21:37;;;;;;;25.98;6.70;;;;;;;20.66;47.79;101701.63;16111968;19;129976;-40
2023/05/12 17:27:00;;;;;;;22.15;6.82;;;;;;;20.63;47.68;101711.28;16112684;19;129921;-40
2023/05/12 17:32:21;;;;;;;18.95;6.75;;;;;;;20.59;47.64;101707.31;16113666;19;130219;-41
2023/05/12 17:37:43;;;;;;;24.05;7.18;;;;;;;20.56;47.46;101725.31;16115865;19;130287;-39
2023/05/12 17:43:06;;;;;;;16.20;6.68;;;;;;;20.58;47.25;101739.81;16111464;19;131764;-41
2023/05/12 17:48:31;;;;;;;18.08;6.15;;;;;;;20.56;46.95;101741.16;16114179;19;129784;-39
2023/05/12 17:53:54;;;;;;;14.20;5.53;;;;;;;20.53;47.14;101750.81;16112304;19;131043;-39
2023/05/12 17:59:15;;;;;;;16.85;4.95;;;;;;;20.51;46.94;101746.56;16113950;19;131100;-39
2023/05/12 18:04:38;;;;;;;13.90;5.00;;;;;;;20.50;46.75;101754.06;16110237;19;130195;-39
2023/05/12 18:10:01;;;;;;;16.30;4.97;;;;;;;20.53;46.29;101749.97;16111821;19;131269;-39
2023/05/12 18:15:23;;;;;;;12.73;4.45;;;;;;;20.58;46.04;101759.28;16106074;19;130492;-41
2023/05/12 18:20:45;;;;;;;11.35;4.10;;;;;;;20.64;46.09;101754.69;16112669;19;132018;-39
2023/05/12 18:26:07;;;;;;;12.90;4.20;;;;;;;20.68;45.78;101750.34;16105112;19;130790;-42
2023/05/12 18:31:30;;;;;;;10.80;3.90;;;;;;;20.70;45.58;101758.44;16107434;19;130668;-39
2023/05/12 18:36:52;;;;;;;10.73;3.67;;;;;;;20.72;45.60;101750.72;16111628;19;129540;-40
2023/05/12 18:42:14;;;;;;;10.38;3.88;;;;;;;20.73;45.62;101757.97;16106781;19;131293;-39
2023/05/12 18:47:36;;;;;;;7.28;3.65;;;;;;;20.76;45.09;101774.19;16103195;19;129755;-41
2023/05/12 18:52:58;;;;;;;15.30;3.88;;;;;;;20.77;45.23;101773.13;16102733;19;130539;-41
2023/05/12 18:58:19;;;;;;;18.48;3.88;;;;;;;20.73;45.60;101777.44;16102718;19;130308;-44
2023/05/12 19:03:42;;;;;;;13.27;3.92;;;;;;;20.77;45.39;101787.03;16116499;19;132915;-41
2023/05/12 19:09:04;;;;;;;15.38;3.60;;;;;;;20.83;45.42;101794.38;16108991;19;129663;-43
2023/05/12 19:14:26;;;;;;;15.63;3.80;;;;;;;20.88;45.52;101794.53;16109671;19;130184;-44
2023/05/12 19:19:49;;;;;;;9.13;3.40;;;;;;;20.91;45.50;101801.53;16104703;19;130719;-40
2023/05/12 19:25:16;;;;;;;8.55;2.90;;;;;;;20.93;45.41;101804.94;16108331;19;130560;-40
2023/05/12 19:30:38;;;;;;;9.50;2.55;;;;;;;20.95;45.73;101797.19;16111108;19;129664;-42
2023/05/12 19:36:00;;;;;;;8.27;3.08;;;;;;;20.97;45.74;101799.72;16107155;19;131015;-43
2023/05/12 19:41:23;;;;;;;8.65;3.28;;;;;;;20.99;45.59;101808.69;16110030;19;129833;-43
2023/05/12 19:46:45;;;;;;;8.55;2.70;;;;;;;21.01;45.60;101809.28;16109542;19;129696;-44
2023/05/12 19:52:07;;;;;;;13.90;2.55;;;;;;;21.04;45.65;101822.72;16106583;19;129788;-39
2023/05/12 19:57:29;;;;;;;15.68;3.40;;;;;;;21.06;45.44;101823.31;16114553;19;129772;-41
2023/05/12 20:02:51;;;;;;;7.57;2.85;;;;;;;21.05;45.41;101844.72;16123310;19;130534;-42
2023/05/12 20:08:13;;;;;;;8.63;2.75;;;;;;;21.01;45.54;101843.50;16116541;19;131164;-42
2023/05/12 20:13:35;;;;;;;7.72;2.53;;;;;;;20.97;45.16;101853.44;16117510;19;130473;-41
2023/05/12 20:18:57;;;;;;;14.68;2.65;;;;;;;20.92;44.99;101858.88;16105110;19;132906;-41
2023/05/12 20:24:22;;;;;;;6.97;2.53;;;;;;;20.85;45.09;101864.53;16117453;19;130322;-40
2023/05/12 20:29:44;;;;;;;4.45;2.28;;;;;;;20.80;45.44;101878.28;16116254;19;132651;-41
2023/05/12 20:35:06;;;;;;;8.73;2.53;;;;;;;20.75;45.54;101881.78;16117966;19;130738;-40
2023/05/12 20:40:28;;;;;;;5.60;2.42;;;;;;;20.70;45.22;101880.78;16117852;19;130955;-42
2023/05/12 20:45:50;;;;;;;8.48;2.40;;;;;;;20.65;45.23;101889.00;16122279;19;130641;-40
2023/05/12 20:51:12;;;;;;;5.60;2.20;;;;;;;20.60;45.27;101887.78;16115293;19;130850;-40
2023/05/12 20:56:34;;;;;;;9.23;2.50;;;;;;;20.54;45.30;101891.50;16114774;19;129885;-41
2023/05/12 21:01:55;;;;;;;8.40;2.53;;;;;;;20.51;45.02;101891.97;16121482;19;129544;-40
2023/05/12 21:07:18;;;;;;;5.30;2.33;;;;;;;20.47;45.14;101895.47;16119150;19;129260;-40
2023/05/12 21:12:40;;;;;;;3.42;2.08;;;;;;;20.45;45.57;101901.25;16115078;19;132073;-42
2023/05/12 21:18:02;;;;;;;4.95;2.30;;;;;;;20.43;45.43;101906.22;16116382;19;134566;-43
2023/05/12 21:23:24;;;;;;;10.18;2.50;;;;;;;20.40;45.88;101912.22;16117012;19;129473;-40
2023/05/12 21:28:46;;;;;;;4.70;2.20;;;;;;;20.38;45.79;101914.38;16112846;19;129910;-40
2023/05/12 21:34:09;;;;;;;5.43;2.47;;;;;;;20.36;45.61;101922.09;16111304;19;129704;-40
2023/05/12 21:39:31;;;;;;;3.65;2.45;;;;;;;20.33;45.27;101920.66;16117316;19;130605;-39
2023/05/12 21:44:52;;;;;;;6.30;2.65;;;;;;;20.31;45.69;101921.97;16111648;19;130152;-40
2023/05/12 21:50:15;;;;;;;5.32;2.70;;;;;;;20.28;45.26;101915.81;16111468;19;130805;-39
2023/05/12 21:55:39;;;;;;;5.78;2.83;;;;;;;20.27;45.46;101921.56;16113706;19;129450;-40
2023/05/12 22:01:01;;;;;;;6.40;2.53;;;;;;;20.26;45.54;101925.44;16107246;19;129530;-40
2023/05/12 22:06:23;;;;;;;5.15;2.72;;;;;;;20.23;45.31;101918.41;16111369;19;130586;-39
2023/05/12 22:11:45;;;;;;;3.83;2.22;;;;;;;20.22;45.79;101919.50;16107817;19;131323;-39
2023/05/12 22:17:07;;;;;;;4.13;2.63;;;;;;;20.21;45.47;101923.34;16112746;19;134392;-40
2023/05/12 22:22:29;;;;;;;4.25;2.30;;;;;;;20.20;45.33;101918.03;16105544;19;130812;-41
2023/05/12 22:27:51;;;;;;;6.72;2.42;;;;;;;20.18;45.36;101929.41;16102266;19;131031;-40
2023/05/12 22:33:13;;;;;;;6.18;2.60;;;;;;;20.18;45.52;101928.53;16106023;19;129834;-40
2023/05/12 22:38:38;;;;;;;5.30;3.00;;;;;;;20.16;45.27;101926.00;16109195;19;129722;-39
2023/05/12 22:44:00;;;;;;;5.55;2.42;;;;;;;20.15;45.59;101918.75;16105227;19;130313;-40
2023/05/12 22:49:22;;;;;;;5.13;2.20;;;;;;;20.14;45.34;101923.44;16103142;19;131231;-39
2023/05/12 22:54:44;;;;;;;3.28;2.55;;;;;;;20.14;45.35;101928.16;16105877;19;131166;-40
2023/05/12 23:00:06;;;;;;;5.55;2.38;;;;;;;20.12;45.40;101919.19;16108037;19;131315;-39
2023/05/12 23:05:28;;;;;;;5.78;2.75;;;;;;;20.11;45.50;101917.50;16112095;19;130146;-40
2023/05/12 23:10:50;;;;;;;3.65;2.60;;;;;;;20.09;45.60;101925.22;16111404;19;129455;-40
2023/05/12 23:16:11;;;;;;;3.97;2.60;;;;;;;20.08;45.63;101924.38;16109761;19;131825;-39
2023/05/12 23:21:33;;;;;;;3.92;2.47;;;;;;;20.08;45.54;101937.41;16109553;19;129689;-40
2023/05/12 23:26:55;;;;;;;3.97;2.90;;;;;;;20.06;45.38;101926.53;16110186;19;130568;-39
2023/05/12 23:32:17;;;;;;;4.35;2.38;;;;;;;20.05;45.71;101924.84;16114047;19;130014;-39
2023/05/12 23:37:39;;;;;;;7.90;3.35;;;;;;;20.04;45.80;101928.69;16123544;19;129319;-40
2023/05/12 23:43:01;;;;;;;4.47;2.47;;;;;;;20.04;45.81;101916.75;16119766;19;129078;-40
2023/05/12 23:48:23;;;;;;;4.00;2.92;;;;;;;20.03;45.54;101913.09;16121244;19;132470;-39
2023/05/12 23:53:45;;;;;;;4.38;2.72;;;;;;;20.01;45.29;101914.44;16122402;19;129894;-39
2023/05/12 23:59:07;;;;;;;3.72;2.65;;;;;;;20.02;45.43;101918.91;16122021;19;133493;-41
